Navajo Mountain, Utah
Current Conditions -  °F | °C
As of 3:53 PM on Saturday 20 Dec 2014 (Local Time) from KPGA Reporting Station
Scattered Clouds Scattered Clouds  
Wind Chill: 42°   Ceiling: Unl
Heat Index: 42°   Visibility: 10mi
Dew Point: 29°   Wind: 0mph
Humidity: 60%   Direction: NA
Pressure: 30.13"   Gusts: NA
Location:  37.02°N, 110.79°W
Report Text: KPGA 202253Z AUTO 00000KT 10SM SCT022 06/M02 A3013 RMK AO2 SLP201 T00561017 TSNO
Loading
Personal Weather Stations






























Interactive Weather Map New forecast layout! Learn more

10-Day Weather Forecast

Advertisements
Track Severe Weather on mobile